VECC/CCU METAR and TAF weather

Enter ICAO airport designator
Station Type Date Time Source
VECC METAR 2020/07/10 00:30 UTC NOAA

VECC 100030Z 20007KT 3500 HZ FEW018 SCT100 30/28 Q1001 NOSIG


Station Type Date Time Source
VECC Decoded METAR 2020/07/10 00:30 UTC NOAA

Calcutta / Dum Dum, India (VECC) 22-39N 088-27E 6M
Jul 09, 2020 - 08:30 PM EDT / 2020.07.10 0030 UTC
Wind: from the SSW (200 degrees) at 8 MPH (7 KT):0
Visibility: 2 mile(s):0
Sky conditions: partly cloudy
Weather: haze
Temperature: 86 F (30 C)
Heat index: 104.7 F (40.4 C):1
Dew Point: 82 F (28 C)
Relative Humidity: 89%
Pressure (altimeter): 29.56 in. Hg (1001 hPa)
ob: VECC 100030Z 20007KT 3500 HZ FEW018 SCT100 30/28 Q1001 NOSIG
cycle: 0

Station Type Date Time Source
VECC TAF 2020/07/08 18:48 UTC NOAA

TAF VECC 081700Z 0818/0924 19006KT 3500 -RA HZ SCT018 BKN100
BECMG 0823/0901 2800 -RA HZ
BECMG 0903/0905 3500 -RA HZ
TEMPO 0905/0909 2000 TSRA SCT015 FEW025CB OVC090
BECMG 0922/0924 2800 -RA HZ

Example: see airport list